sensor_id;sensor_type;location;lat;lon;timestamp;P1;durP1;ratioP1;P2;durP2;ratioP2
11255;SDS011;5685;52.384;13.420;2023-02-18T00:02:05;64.50;;;38.10;;
11255;SDS011;5685;52.384;13.420;2023-02-18T00:05:08;64.90;;;38.37;;
11255;SDS011;5685;52.384;13.420;2023-02-18T00:08:12;65.03;;;38.30;;
11255;SDS011;5685;52.384;13.420;2023-02-18T00:11:16;65.13;;;38.30;;
11255;SDS011;5685;52.384;13.420;2023-02-18T00:14:19;64.73;;;38.17;;
11255;SDS011;5685;52.384;13.420;2023-02-18T00:17:22;64.50;;;38.10;;
11255;SDS011;5685;52.384;13.420;2023-02-18T00:20:25;64.83;;;38.20;;
11255;SDS011;5685;52.384;13.420;2023-02-18T00:23:29;64.33;;;38.00;;
11255;SDS011;5685;52.384;13.420;2023-02-18T00:26:32;64.70;;;38.13;;
11255;SDS011;5685;52.384;13.420;2023-02-18T00:29:35;64.73;;;38.20;;
11255;SDS011;5685;52.384;13.420;2023-02-18T00:32:38;64.47;;;37.97;;
11255;SDS011;5685;52.384;13.420;2023-02-18T00:35:40;64.53;;;37.97;;
11255;SDS011;5685;52.384;13.420;2023-02-18T00:38:45;64.70;;;38.03;;
11255;SDS011;5685;52.384;13.420;2023-02-18T00:41:48;64.87;;;38.07;;
11255;SDS011;5685;52.384;13.420;2023-02-18T00:44:50;64.67;;;38.00;;
11255;SDS011;5685;52.384;13.420;2023-02-18T00:47:53;64.60;;;38.00;;
11255;SDS011;5685;52.384;13.420;2023-02-18T00:50:56;64.80;;;38.10;;
11255;SDS011;5685;52.384;13.420;2023-02-18T00:54:01;65.07;;;38.17;;
11255;SDS011;5685;52.384;13.420;2023-02-18T00:57:03;65.47;;;38.40;;
11255;SDS011;5685;52.384;13.420;2023-02-18T01:00:07;65.20;;;38.20;;
11255;SDS011;5685;52.384;13.420;2023-02-18T01:03:10;64.93;;;38.07;;
11255;SDS011;5685;52.384;13.420;2023-02-18T01:06:13;65.00;;;38.13;;
11255;SDS011;5685;52.384;13.420;2023-02-18T01:09:18;65.27;;;38.20;;
11255;SDS011;5685;52.384;13.420;2023-02-18T01:12:24;65.20;;;38.10;;
11255;SDS011;5685;52.384;13.420;2023-02-18T01:15:27;64.73;;;37.90;;
11255;SDS011;5685;52.384;13.420;2023-02-18T01:18:30;65.50;;;38.37;;
11255;SDS011;5685;52.384;13.420;2023-02-18T01:21:32;65.37;;;38.23;;
11255;SDS011;5685;52.384;13.420;2023-02-18T01:24:36;64.90;;;38.00;;
11255;SDS011;5685;52.384;13.420;2023-02-18T01:27:39;65.33;;;38.13;;
11255;SDS011;5685;52.384;13.420;2023-02-18T01:30:42;65.13;;;38.00;;
11255;SDS011;5685;52.384;13.420;2023-02-18T01:33:45;65.60;;;38.23;;
11255;SDS011;5685;52.384;13.420;2023-02-18T01:36:48;65.37;;;38.00;;
11255;SDS011;5685;52.384;13.420;2023-02-18T01:39:52;65.37;;;38.07;;
11255;SDS011;5685;52.384;13.420;2023-02-18T01:42:55;65.60;;;38.10;;
11255;SDS011;5685;52.384;13.420;2023-02-18T01:45:59;65.60;;;38.07;;
11255;SDS011;5685;52.384;13.420;2023-02-18T01:49:09;65.77;;;38.17;;
11255;SDS011;5685;52.384;13.420;2023-02-18T01:52:17;65.33;;;38.10;;
11255;SDS011;5685;52.384;13.420;2023-02-18T01:55:23;65.77;;;38.17;;
11255;SDS011;5685;52.384;13.420;2023-02-18T01:58:25;66.10;;;38.30;;
11255;SDS011;5685;52.384;13.420;2023-02-18T02:01:28;65.60;;;38.03;;
11255;SDS011;5685;52.384;13.420;2023-02-18T02:04:32;65.47;;;38.00;;
11255;SDS011;5685;52.384;13.420;2023-02-18T02:07:34;66.10;;;38.30;;
11255;SDS011;5685;52.384;13.420;2023-02-18T02:10:42;66.03;;;38.30;;
11255;SDS011;5685;52.384;13.420;2023-02-18T02:14:00;65.97;;;38.20;;
11255;SDS011;5685;52.384;13.420;2023-02-18T02:17:12;65.53;;;38.00;;
11255;SDS011;5685;52.384;13.420;2023-02-18T02:20:30;65.80;;;38.10;;
11255;SDS011;5685;52.384;13.420;2023-02-18T02:27:16;65.80;;;38.00;;
11255;SDS011;5685;52.384;13.420;2023-02-18T02:33:59;65.80;;;38.00;;
11255;SDS011;5685;52.384;13.420;2023-02-18T02:37:24;65.97;;;38.20;;
11255;SDS011;5685;52.384;13.420;2023-02-18T02:40:32;66.27;;;38.20;;
11255;SDS011;5685;52.384;13.420;2023-02-18T02:43:39;66.07;;;38.17;;
11255;SDS011;5685;52.384;13.420;2023-02-18T02:46:50;66.23;;;38.23;;
11255;SDS011;5685;52.384;13.420;2023-02-18T02:49:55;66.13;;;38.20;;
11255;SDS011;5685;52.384;13.420;2023-02-18T02:53:03;66.50;;;38.30;;
11255;SDS011;5685;52.384;13.420;2023-02-18T02:56:12;66.33;;;38.30;;
11255;SDS011;5685;52.384;13.420;2023-02-18T02:59:17;66.37;;;38.27;;
11255;SDS011;5685;52.384;13.420;2023-02-18T03:02:23;66.23;;;38.17;;
11255;SDS011;5685;52.384;13.420;2023-02-18T03:05:32;66.60;;;38.40;;
11255;SDS011;5685;52.384;13.420;2023-02-18T03:08:48;66.23;;;38.30;;
11255;SDS011;5685;52.384;13.420;2023-02-18T03:11:57;66.10;;;38.17;;
11255;SDS011;5685;52.384;13.420;2023-02-18T03:15:04;66.70;;;38.30;;
11255;SDS011;5685;52.384;13.420;2023-02-18T03:18:13;66.67;;;38.40;;
11255;SDS011;5685;52.384;13.420;2023-02-18T03:21:20;66.27;;;38.20;;
11255;SDS011;5685;52.384;13.420;2023-02-18T03:24:28;66.60;;;38.30;;
11255;SDS011;5685;52.384;13.420;2023-02-18T03:27:33;66.37;;;38.10;;
11255;SDS011;5685;52.384;13.420;2023-02-18T03:30:39;66.67;;;38.37;;
11255;SDS011;5685;52.384;13.420;2023-02-18T03:33:46;66.17;;;38.13;;
11255;SDS011;5685;52.384;13.420;2023-02-18T03:36:50;66.60;;;38.30;;
11255;SDS011;5685;52.384;13.420;2023-02-18T03:39:55;66.57;;;38.20;;
11255;SDS011;5685;52.384;13.420;2023-02-18T03:42:59;66.43;;;38.20;;
11255;SDS011;5685;52.384;13.420;2023-02-18T03:46:01;66.17;;;37.93;;
11255;SDS011;5685;52.384;13.420;2023-02-18T03:49:05;66.07;;;38.00;;
11255;SDS011;5685;52.384;13.420;2023-02-18T03:52:08;66.20;;;38.07;;
11255;SDS011;5685;52.384;13.420;2023-02-18T03:55:12;66.70;;;38.40;;
11255;SDS011;5685;52.384;13.420;2023-02-18T03:58:15;66.40;;;38.20;;
11255;SDS011;5685;52.384;13.420;2023-02-18T04:01:17;66.33;;;38.03;;
11255;SDS011;5685;52.384;13.420;2023-02-18T04:04:20;66.67;;;38.23;;
11255;SDS011;5685;52.384;13.420;2023-02-18T04:07:22;66.47;;;38.10;;
11255;SDS011;5685;52.384;13.420;2023-02-18T04:10:27;66.50;;;38.10;;
11255;SDS011;5685;52.384;13.420;2023-02-18T04:13:29;66.63;;;38.20;;
11255;SDS011;5685;52.384;13.420;2023-02-18T04:16:32;66.37;;;38.10;;
11255;SDS011;5685;52.384;13.420;2023-02-18T04:19:35;66.03;;;38.00;;
11255;SDS011;5685;52.384;13.420;2023-02-18T04:22:37;66.07;;;38.07;;
11255;SDS011;5685;52.384;13.420;2023-02-18T04:25:41;66.37;;;38.20;;
11255;SDS011;5685;52.384;13.420;2023-02-18T04:28:44;66.10;;;38.13;;
11255;SDS011;5685;52.384;13.420;2023-02-18T04:31:47;66.27;;;38.20;;
11255;SDS011;5685;52.384;13.420;2023-02-18T04:34:49;65.97;;;38.07;;
11255;SDS011;5685;52.384;13.420;2023-02-18T04:37:52;66.50;;;38.30;;
11255;SDS011;5685;52.384;13.420;2023-02-18T04:40:56;66.00;;;38.00;;
11255;SDS011;5685;52.384;13.420;2023-02-18T04:43:59;66.13;;;38.10;;
11255;SDS011;5685;52.384;13.420;2023-02-18T04:47:05;66.27;;;38.10;;
11255;SDS011;5685;52.384;13.420;2023-02-18T04:50:08;66.70;;;38.30;;
11255;SDS011;5685;52.384;13.420;2023-02-18T04:53:11;66.63;;;38.30;;
11255;SDS011;5685;52.384;13.420;2023-02-18T04:56:15;65.97;;;37.90;;
11255;SDS011;5685;52.384;13.420;2023-02-18T04:59:19;66.60;;;38.30;;
11255;SDS011;5685;52.384;13.420;2023-02-18T05:02:21;66.47;;;38.27;;
11255;SDS011;5685;52.384;13.420;2023-02-18T05:05:24;66.43;;;38.20;;
11255;SDS011;5685;52.384;13.420;2023-02-18T05:08:27;66.30;;;38.27;;
11255;SDS011;5685;52.384;13.420;2023-02-18T05:11:31;66.30;;;38.30;;
11255;SDS011;5685;52.384;13.420;2023-02-18T05:14:34;65.97;;;38.10;;
11255;SDS011;5685;52.384;13.420;2023-02-18T05:17:36;65.77;;;38.00;;
11255;SDS011;5685;52.384;13.420;2023-02-18T05:20:39;65.60;;;38.00;;
11255;SDS011;5685;52.384;13.420;2023-02-18T05:23:42;65.53;;;38.00;;
11255;SDS011;5685;52.384;13.420;2023-02-18T05:26:46;65.67;;;38.07;;
11255;SDS011;5685;52.384;13.420;2023-02-18T05:29:49;65.37;;;37.90;;
11255;SDS011;5685;52.384;13.420;2023-02-18T05:32:51;65.50;;;38.00;;
11255;SDS011;5685;52.384;13.420;2023-02-18T05:35:54;65.63;;;38.00;;
11255;SDS011;5685;52.384;13.420;2023-02-18T05:38:57;65.77;;;38.27;;
11255;SDS011;5685;52.384;13.420;2023-02-18T05:42:01;65.43;;;38.03;;
11255;SDS011;5685;52.384;13.420;2023-02-18T05:45:04;65.80;;;38.10;;
11255;SDS011;5685;52.384;13.420;2023-02-18T05:48:07;65.90;;;38.20;;
11255;SDS011;5685;52.384;13.420;2023-02-18T05:51:10;66.03;;;38.20;;
11255;SDS011;5685;52.384;13.420;2023-02-18T05:54:12;66.07;;;38.27;;
11255;SDS011;5685;52.384;13.420;2023-02-18T05:57:16;65.57;;;38.03;;
11255;SDS011;5685;52.384;13.420;2023-02-18T06:00:19;65.90;;;38.10;;
11255;SDS011;5685;52.384;13.420;2023-02-18T06:03:22;65.90;;;38.10;;
11255;SDS011;5685;52.384;13.420;2023-02-18T06:06:24;65.63;;;38.00;;
11255;SDS011;5685;52.384;13.420;2023-02-18T06:09:27;65.90;;;38.13;;
11255;SDS011;5685;52.384;13.420;2023-02-18T06:12:31;66.00;;;38.00;;
11255;SDS011;5685;52.384;13.420;2023-02-18T06:15:34;66.30;;;38.27;;
11255;SDS011;5685;52.384;13.420;2023-02-18T06:18:37;66.03;;;38.00;;
11255;SDS011;5685;52.384;13.420;2023-02-18T06:21:39;66.17;;;38.10;;
11255;SDS011;5685;52.384;13.420;2023-02-18T06:24:42;66.47;;;38.40;;
11255;SDS011;5685;52.384;13.420;2023-02-18T06:27:46;66.33;;;38.10;;
11255;SDS011;5685;52.384;13.420;2023-02-18T06:30:49;66.20;;;38.10;;
11255;SDS011;5685;52.384;13.420;2023-02-18T06:33:51;66.27;;;38.20;;
11255;SDS011;5685;52.384;13.420;2023-02-18T06:36:54;65.83;;;37.90;;
11255;SDS011;5685;52.384;13.420;2023-02-18T06:39:57;65.93;;;37.87;;
11255;SDS011;5685;52.384;13.420;2023-02-18T06:43:01;65.87;;;37.60;;
11255;SDS011;5685;52.384;13.420;2023-02-18T06:46:04;65.70;;;37.60;;
11255;SDS011;5685;52.384;13.420;2023-02-18T06:49:06;65.33;;;37.37;;
11255;SDS011;5685;52.384;13.420;2023-02-18T06:52:09;65.67;;;37.43;;
11255;SDS011;5685;52.384;13.420;2023-02-18T06:55:12;66.03;;;37.43;;
11255;SDS011;5685;52.384;13.420;2023-02-18T06:58:16;65.40;;;37.10;;
11255;SDS011;5685;52.384;13.420;2023-02-18T07:01:18;65.93;;;37.23;;
11255;SDS011;5685;52.384;13.420;2023-02-18T07:04:21;65.00;;;36.80;;
11255;SDS011;5685;52.384;13.420;2023-02-18T07:07:24;65.30;;;37.00;;
11255;SDS011;5685;52.384;13.420;2023-02-18T07:10:26;65.77;;;37.20;;
11255;SDS011;5685;52.384;13.420;2023-02-18T07:13:31;65.40;;;37.00;;
11255;SDS011;5685;52.384;13.420;2023-02-18T07:16:33;65.77;;;37.27;;
11255;SDS011;5685;52.384;13.420;2023-02-18T07:19:36;65.87;;;37.23;;
11255;SDS011;5685;52.384;13.420;2023-02-18T07:22:39;65.77;;;37.30;;
11255;SDS011;5685;52.384;13.420;2023-02-18T07:25:42;65.60;;;37.23;;
11255;SDS011;5685;52.384;13.420;2023-02-18T07:28:46;65.33;;;37.13;;
11255;SDS011;5685;52.384;13.420;2023-02-18T07:31:48;66.07;;;37.50;;
11255;SDS011;5685;52.384;13.420;2023-02-18T07:34:51;65.83;;;37.30;;
11255;SDS011;5685;52.384;13.420;2023-02-18T07:37:54;65.87;;;37.47;;
11255;SDS011;5685;52.384;13.420;2023-02-18T07:40:57;66.20;;;37.60;;
11255;SDS011;5685;52.384;13.420;2023-02-18T07:44:02;65.93;;;37.50;;
11255;SDS011;5685;52.384;13.420;2023-02-18T07:47:05;65.77;;;37.50;;
11255;SDS011;5685;52.384;13.420;2023-02-18T07:50:10;65.67;;;37.50;;
11255;SDS011;5685;52.384;13.420;2023-02-18T07:53:13;65.63;;;37.47;;
11255;SDS011;5685;52.384;13.420;2023-02-18T07:56:16;65.80;;;37.50;;
11255;SDS011;5685;52.384;13.420;2023-02-18T07:59:20;65.87;;;37.53;;
11255;SDS011;5685;52.384;13.420;2023-02-18T08:02:23;65.23;;;37.30;;
11255;SDS011;5685;52.384;13.420;2023-02-18T08:05:26;65.87;;;37.60;;
11255;SDS011;5685;52.384;13.420;2023-02-18T08:08:29;65.97;;;37.57;;
11255;SDS011;5685;52.384;13.420;2023-02-18T08:11:32;65.93;;;37.60;;
11255;SDS011;5685;52.384;13.420;2023-02-18T08:14:36;65.60;;;37.60;;
11255;SDS011;5685;52.384;13.420;2023-02-18T08:17:39;65.57;;;37.50;;
11255;SDS011;5685;52.384;13.420;2023-02-18T08:20:42;65.73;;;37.60;;
11255;SDS011;5685;52.384;13.420;2023-02-18T08:23:46;65.17;;;37.40;;
11255;SDS011;5685;52.384;13.420;2023-02-18T08:26:49;65.33;;;37.33;;
11255;SDS011;5685;52.384;13.420;2023-02-18T08:29:53;65.47;;;37.40;;
11255;SDS011;5685;52.384;13.420;2023-02-18T08:32:55;65.13;;;37.30;;
11255;SDS011;5685;52.384;13.420;2023-02-18T08:35:58;65.57;;;37.50;;
11255;SDS011;5685;52.384;13.420;2023-02-18T08:39:01;65.13;;;37.33;;
11255;SDS011;5685;52.384;13.420;2023-02-18T08:42:04;65.50;;;37.50;;
11255;SDS011;5685;52.384;13.420;2023-02-18T08:45:08;65.47;;;37.50;;
11255;SDS011;5685;52.384;13.420;2023-02-18T08:48:12;65.03;;;37.33;;
11255;SDS011;5685;52.384;13.420;2023-02-18T08:51:16;65.37;;;37.53;;
11255;SDS011;5685;52.384;13.420;2023-02-18T08:54:20;65.03;;;37.30;;
11255;SDS011;5685;52.384;13.420;2023-02-18T08:57:23;65.17;;;37.40;;
11255;SDS011;5685;52.384;13.420;2023-02-18T09:00:27;65.20;;;37.43;;
11255;SDS011;5685;52.384;13.420;2023-02-18T09:03:30;65.13;;;37.50;;
11255;SDS011;5685;52.384;13.420;2023-02-18T09:06:35;65.77;;;37.77;;
11255;SDS011;5685;52.384;13.420;2023-02-18T09:09:38;65.43;;;37.60;;
11255;SDS011;5685;52.384;13.420;2023-02-18T09:12:41;65.23;;;37.47;;
11255;SDS011;5685;52.384;13.420;2023-02-18T09:15:45;65.37;;;37.37;;
11255;SDS011;5685;52.384;13.420;2023-02-18T09:18:57;65.40;;;37.60;;
11255;SDS011;5685;52.384;13.420;2023-02-18T09:21:59;65.90;;;37.90;;
11255;SDS011;5685;52.384;13.420;2023-02-18T09:25:03;65.57;;;37.70;;
11255;SDS011;5685;52.384;13.420;2023-02-18T09:28:06;66.00;;;37.90;;
11255;SDS011;5685;52.384;13.420;2023-02-18T09:31:11;65.53;;;37.50;;
11255;SDS011;5685;52.384;13.420;2023-02-18T09:34:15;65.67;;;37.70;;
11255;SDS011;5685;52.384;13.420;2023-02-18T09:37:17;65.43;;;37.60;;
11255;SDS011;5685;52.384;13.420;2023-02-18T09:40:22;65.80;;;37.67;;
11255;SDS011;5685;52.384;13.420;2023-02-18T09:43:28;65.60;;;37.67;;
11255;SDS011;5685;52.384;13.420;2023-02-18T09:46:37;66.03;;;37.80;;
11255;SDS011;5685;52.384;13.420;2023-02-18T09:49:42;65.80;;;37.70;;
11255;SDS011;5685;52.384;13.420;2023-02-18T09:52:47;65.37;;;37.50;;
11255;SDS011;5685;52.384;13.420;2023-02-18T09:55:50;65.60;;;37.60;;
11255;SDS011;5685;52.384;13.420;2023-02-18T09:58:53;65.93;;;37.70;;
11255;SDS011;5685;52.384;13.420;2023-02-18T10:01:58;65.70;;;37.70;;
11255;SDS011;5685;52.384;13.420;2023-02-18T10:05:02;65.90;;;37.60;;
11255;SDS011;5685;52.384;13.420;2023-02-18T10:08:06;66.00;;;37.80;;
11255;SDS011;5685;52.384;13.420;2023-02-18T10:11:20;65.80;;;37.70;;
11255;SDS011;5685;52.384;13.420;2023-02-18T10:14:24;65.73;;;37.67;;
11255;SDS011;5685;52.384;13.420;2023-02-18T10:17:29;66.20;;;37.87;;
11255;SDS011;5685;52.384;13.420;2023-02-18T10:20:33;65.67;;;37.53;;
11255;SDS011;5685;52.384;13.420;2023-02-18T10:23:37;66.00;;;37.80;;
11255;SDS011;5685;52.384;13.420;2023-02-18T10:26:42;65.53;;;37.63;;
11255;SDS011;5685;52.384;13.420;2023-02-18T10:29:44;65.97;;;37.97;;
11255;SDS011;5685;52.384;13.420;2023-02-18T10:32:49;65.70;;;37.60;;
11255;SDS011;5685;52.384;13.420;2023-02-18T10:35:56;65.67;;;37.70;;
11255;SDS011;5685;52.384;13.420;2023-02-18T10:39:16;65.13;;;37.53;;
11255;SDS011;5685;52.384;13.420;2023-02-18T10:42:39;65.93;;;37.90;;
11255;SDS011;5685;52.384;13.420;2023-02-18T10:45:57;65.47;;;37.60;;
11255;SDS011;5685;52.384;13.420;2023-02-18T10:49:12;65.43;;;37.73;;
11255;SDS011;5685;52.384;13.420;2023-02-18T10:52:27;65.40;;;37.67;;
11255;SDS011;5685;52.384;13.420;2023-02-18T10:55:35;65.40;;;37.60;;
11255;SDS011;5685;52.384;13.420;2023-02-18T10:58:41;65.77;;;37.80;;
11255;SDS011;5685;52.384;13.420;2023-02-18T11:01:46;65.03;;;37.40;;
11255;SDS011;5685;52.384;13.420;2023-02-18T11:04:57;65.30;;;37.57;;
11255;SDS011;5685;52.384;13.420;2023-02-18T11:08:01;65.30;;;37.60;;
11255;SDS011;5685;52.384;13.420;2023-02-18T11:11:09;65.40;;;37.43;;
11255;SDS011;5685;52.384;13.420;2023-02-18T11:14:16;65.10;;;37.40;;
11255;SDS011;5685;52.384;13.420;2023-02-18T11:17:44;65.80;;;37.80;;
11255;SDS011;5685;52.384;13.420;2023-02-18T11:20:53;65.17;;;37.50;;
11255;SDS011;5685;52.384;13.420;2023-02-18T11:24:04;65.80;;;37.90;;
11255;SDS011;5685;52.384;13.420;2023-02-18T11:27:08;65.77;;;37.80;;
11255;SDS011;5685;52.384;13.420;2023-02-18T11:30:16;65.67;;;37.73;;
11255;SDS011;5685;52.384;13.420;2023-02-18T11:33:22;65.53;;;37.60;;
11255;SDS011;5685;52.384;13.420;2023-02-18T11:36:31;65.53;;;37.80;;
11255;SDS011;5685;52.384;13.420;2023-02-18T11:39:35;65.73;;;37.80;;
11255;SDS011;5685;52.384;13.420;2023-02-18T11:42:38;65.40;;;37.70;;
11255;SDS011;5685;52.384;13.420;2023-02-18T11:45:40;65.63;;;37.80;;
11255;SDS011;5685;52.384;13.420;2023-02-18T11:48:43;65.33;;;37.60;;
11255;SDS011;5685;52.384;13.420;2023-02-18T11:51:48;65.57;;;37.70;;
11255;SDS011;5685;52.384;13.420;2023-02-18T11:54:58;65.77;;;37.90;;
11255;SDS011;5685;52.384;13.420;2023-02-18T11:58:02;65.30;;;37.57;;
11255;SDS011;5685;52.384;13.420;2023-02-18T12:01:11;65.27;;;37.60;;
11255;SDS011;5685;52.384;13.420;2023-02-18T12:04:16;65.20;;;37.50;;
11255;SDS011;5685;52.384;13.420;2023-02-18T12:07:22;65.57;;;37.80;;
11255;SDS011;5685;52.384;13.420;2023-02-18T12:10:29;65.73;;;37.80;;
11255;SDS011;5685;52.384;13.420;2023-02-18T12:13:34;65.13;;;37.47;;
11255;SDS011;5685;52.384;13.420;2023-02-18T12:16:40;65.40;;;37.60;;
11255;SDS011;5685;52.384;13.420;2023-02-18T12:19:57;64.97;;;37.50;;
11255;SDS011;5685;52.384;13.420;2023-02-18T12:23:13;65.60;;;37.73;;
11255;SDS011;5685;52.384;13.420;2023-02-18T12:26:23;65.90;;;38.00;;
11255;SDS011;5685;52.384;13.420;2023-02-18T12:29:37;65.37;;;37.47;;
11255;SDS011;5685;52.384;13.420;2023-02-18T12:32:47;65.83;;;37.90;;
11255;SDS011;5685;52.384;13.420;2023-02-18T12:35:59;66.03;;;37.97;;
11255;SDS011;5685;52.384;13.420;2023-02-18T12:39:12;65.57;;;37.80;;
11255;SDS011;5685;52.384;13.420;2023-02-18T12:42:22;65.80;;;37.97;;
11255;SDS011;5685;52.384;13.420;2023-02-18T12:45:36;65.77;;;37.87;;
11255;SDS011;5685;52.384;13.420;2023-02-18T12:48:48;65.43;;;37.63;;
11255;SDS011;5685;52.384;13.420;2023-02-18T12:52:01;65.87;;;37.80;;
11255;SDS011;5685;52.384;13.420;2023-02-18T12:55:19;65.33;;;37.57;;
11255;SDS011;5685;52.384;13.420;2023-02-18T12:58:32;65.53;;;37.70;;
11255;SDS011;5685;52.384;13.420;2023-02-18T13:01:42;65.70;;;37.70;;
11255;SDS011;5685;52.384;13.420;2023-02-18T13:04:51;65.83;;;37.90;;
11255;SDS011;5685;52.384;13.420;2023-02-18T13:08:02;66.20;;;38.10;;
11255;SDS011;5685;52.384;13.420;2023-02-18T13:11:15;66.00;;;37.93;;
11255;SDS011;5685;52.384;13.420;2023-02-18T13:14:24;65.87;;;37.90;;
11255;SDS011;5685;52.384;13.420;2023-02-18T13:17:31;65.77;;;37.80;;
11255;SDS011;5685;52.384;13.420;2023-02-18T13:20:38;65.67;;;37.77;;
11255;SDS011;5685;52.384;13.420;2023-02-18T13:23:45;66.03;;;37.97;;
11255;SDS011;5685;52.384;13.420;2023-02-18T13:26:53;65.27;;;37.60;;
11255;SDS011;5685;52.384;13.420;2023-02-18T13:30:08;65.57;;;37.70;;
11255;SDS011;5685;52.384;13.420;2023-02-18T13:33:20;66.00;;;38.00;;
11255;SDS011;5685;52.384;13.420;2023-02-18T13:39:52;65.10;;;37.53;;
11255;SDS011;5685;52.384;13.420;2023-02-18T13:46:20;65.37;;;37.70;;
11255;SDS011;5685;52.384;13.420;2023-02-18T13:49:23;66.03;;;38.13;;
11255;SDS011;5685;52.384;13.420;2023-02-18T13:52:27;65.60;;;37.80;;
11255;SDS011;5685;52.384;13.420;2023-02-18T13:55:33;66.07;;;38.00;;
11255;SDS011;5685;52.384;13.420;2023-02-18T13:58:42;65.63;;;37.80;;
11255;SDS011;5685;52.384;13.420;2023-02-18T14:01:49;65.93;;;38.10;;
11255;SDS011;5685;52.384;13.420;2023-02-18T14:04:53;65.97;;;38.07;;
11255;SDS011;5685;52.384;13.420;2023-02-18T14:08:04;65.30;;;37.77;;
11255;SDS011;5685;52.384;13.420;2023-02-18T14:11:29;66.03;;;38.00;;
11255;SDS011;5685;52.384;13.420;2023-02-18T14:14:39;65.73;;;38.00;;
11255;SDS011;5685;52.384;13.420;2023-02-18T14:17:42;65.60;;;37.83;;
11255;SDS011;5685;52.384;13.420;2023-02-18T14:20:46;65.50;;;37.80;;
11255;SDS011;5685;52.384;13.420;2023-02-18T14:23:54;65.13;;;37.70;;
11255;SDS011;5685;52.384;13.420;2023-02-18T14:27:06;65.73;;;37.90;;
11255;SDS011;5685;52.384;13.420;2023-02-18T14:30:18;65.40;;;37.70;;
11255;SDS011;5685;52.384;13.420;2023-02-18T14:33:25;65.17;;;37.60;;
11255;SDS011;5685;52.384;13.420;2023-02-18T14:36:33;65.47;;;37.77;;
11255;SDS011;5685;52.384;13.420;2023-02-18T14:39:46;65.30;;;37.80;;
11255;SDS011;5685;52.384;13.420;2023-02-18T14:42:55;64.83;;;37.53;;
11255;SDS011;5685;52.384;13.420;2023-02-18T14:46:14;65.40;;;37.90;;
11255;SDS011;5685;52.384;13.420;2023-02-18T14:49:33;65.30;;;37.80;;
11255;SDS011;5685;52.384;13.420;2023-02-18T14:52:39;65.10;;;37.67;;
11255;SDS011;5685;52.384;13.420;2023-02-18T14:55:45;65.00;;;37.70;;
11255;SDS011;5685;52.384;13.420;2023-02-18T14:58:49;65.43;;;37.90;;
11255;SDS011;5685;52.384;13.420;2023-02-18T15:01:56;65.30;;;37.83;;
11255;SDS011;5685;52.384;13.420;2023-02-18T15:05:10;65.23;;;37.80;;
11255;SDS011;5685;52.384;13.420;2023-02-18T15:08:16;65.70;;;38.03;;
11255;SDS011;5685;52.384;13.420;2023-02-18T15:11:20;65.10;;;37.60;;
11255;SDS011;5685;52.384;13.420;2023-02-18T15:14:24;65.40;;;38.07;;
11255;SDS011;5685;52.384;13.420;2023-02-18T15:17:31;65.20;;;37.73;;
11255;SDS011;5685;52.384;13.420;2023-02-18T15:20:34;65.30;;;37.83;;
11255;SDS011;5685;52.384;13.420;2023-02-18T15:23:37;64.90;;;37.70;;
11255;SDS011;5685;52.384;13.420;2023-02-18T15:26:41;65.13;;;37.70;;
11255;SDS011;5685;52.384;13.420;2023-02-18T15:29:48;65.43;;;37.90;;
11255;SDS011;5685;52.384;13.420;2023-02-18T15:32:54;64.70;;;37.50;;
11255;SDS011;5685;52.384;13.420;2023-02-18T15:36:00;64.80;;;37.60;;
11255;SDS011;5685;52.384;13.420;2023-02-18T15:39:04;64.97;;;37.70;;
11255;SDS011;5685;52.384;13.420;2023-02-18T15:42:07;64.97;;;37.73;;
11255;SDS011;5685;52.384;13.420;2023-02-18T15:45:14;64.80;;;37.70;;
11255;SDS011;5685;52.384;13.420;2023-02-18T15:48:22;64.90;;;37.67;;
11255;SDS011;5685;52.384;13.420;2023-02-18T15:51:30;64.67;;;37.50;;
11255;SDS011;5685;52.384;13.420;2023-02-18T15:54:33;64.87;;;37.73;;
11255;SDS011;5685;52.384;13.420;2023-02-18T15:57:40;64.93;;;37.80;;
11255;SDS011;5685;52.384;13.420;2023-02-18T16:00:46;64.63;;;37.60;;
11255;SDS011;5685;52.384;13.420;2023-02-18T16:03:52;64.57;;;37.60;;
11255;SDS011;5685;52.384;13.420;2023-02-18T16:06:55;64.93;;;37.80;;
11255;SDS011;5685;52.384;13.420;2023-02-18T16:10:12;64.77;;;37.70;;
11255;SDS011;5685;52.384;13.420;2023-02-18T16:13:18;64.70;;;37.70;;
11255;SDS011;5685;52.384;13.420;2023-02-18T16:16:21;64.73;;;37.80;;
11255;SDS011;5685;52.384;13.420;2023-02-18T16:19:27;64.53;;;37.70;;
11255;SDS011;5685;52.384;13.420;2023-02-18T16:22:33;64.67;;;37.80;;
11255;SDS011;5685;52.384;13.420;2023-02-18T16:25:42;64.83;;;37.90;;
11255;SDS011;5685;52.384;13.420;2023-02-18T16:28:45;64.60;;;37.80;;
11255;SDS011;5685;52.384;13.420;2023-02-18T16:31:50;65.00;;;38.03;;
11255;SDS011;5685;52.384;13.420;2023-02-18T16:34:54;64.97;;;37.90;;
11255;SDS011;5685;52.384;13.420;2023-02-18T16:37:57;64.80;;;37.80;;
11255;SDS011;5685;52.384;13.420;2023-02-18T16:40:59;64.80;;;37.90;;
11255;SDS011;5685;52.384;13.420;2023-02-18T16:44:04;64.73;;;37.90;;
11255;SDS011;5685;52.384;13.420;2023-02-18T16:47:14;64.50;;;37.73;;
11255;SDS011;5685;52.384;13.420;2023-02-18T16:50:20;64.37;;;37.70;;
11255;SDS011;5685;52.384;13.420;2023-02-18T16:53:22;64.80;;;37.90;;
11255;SDS011;5685;52.384;13.420;2023-02-18T16:56:26;64.70;;;37.80;;
11255;SDS011;5685;52.384;13.420;2023-02-18T16:59:31;64.57;;;37.80;;
11255;SDS011;5685;52.384;13.420;2023-02-18T17:02:34;64.57;;;37.80;;
11255;SDS011;5685;52.384;13.420;2023-02-18T17:05:39;64.47;;;37.70;;
11255;SDS011;5685;52.384;13.420;2023-02-18T17:08:41;64.70;;;38.00;;
11255;SDS011;5685;52.384;13.420;2023-02-18T17:11:45;64.70;;;37.83;;
11255;SDS011;5685;52.384;13.420;2023-02-18T17:14:48;64.90;;;38.07;;
11255;SDS011;5685;52.384;13.420;2023-02-18T17:17:51;64.47;;;37.70;;
11255;SDS011;5685;52.384;13.420;2023-02-18T17:20:55;64.70;;;38.00;;
11255;SDS011;5685;52.384;13.420;2023-02-18T17:23:58;64.33;;;37.63;;
11255;SDS011;5685;52.384;13.420;2023-02-18T17:27:01;64.43;;;37.80;;
11255;SDS011;5685;52.384;13.420;2023-02-18T17:30:04;64.10;;;37.60;;
11255;SDS011;5685;52.384;13.420;2023-02-18T17:33:07;64.57;;;37.87;;
11255;SDS011;5685;52.384;13.420;2023-02-18T17:36:15;64.23;;;37.70;;
11255;SDS011;5685;52.384;13.420;2023-02-18T17:39:18;64.07;;;37.53;;
11255;SDS011;5685;52.384;13.420;2023-02-18T17:42:21;64.03;;;37.60;;
11255;SDS011;5685;52.384;13.420;2023-02-18T17:45:26;64.50;;;37.90;;
11255;SDS011;5685;52.384;13.420;2023-02-18T17:48:31;64.40;;;37.70;;
11255;SDS011;5685;52.384;13.420;2023-02-18T17:51:35;64.10;;;37.70;;
11255;SDS011;5685;52.384;13.420;2023-02-18T17:54:38;64.67;;;37.97;;
11255;SDS011;5685;52.384;13.420;2023-02-18T17:57:41;64.33;;;37.87;;
11255;SDS011;5685;52.384;13.420;2023-02-18T18:00:45;64.40;;;37.90;;
11255;SDS011;5685;52.384;13.420;2023-02-18T18:03:50;64.17;;;37.90;;
11255;SDS011;5685;52.384;13.420;2023-02-18T18:06:54;63.93;;;37.67;;
11255;SDS011;5685;52.384;13.420;2023-02-18T18:09:56;64.23;;;37.80;;
11255;SDS011;5685;52.384;13.420;2023-02-18T18:13:00;64.13;;;37.73;;
11255;SDS011;5685;52.384;13.420;2023-02-18T18:16:04;64.33;;;37.93;;
11255;SDS011;5685;52.384;13.420;2023-02-18T18:19:07;64.30;;;37.90;;